sensor_id;sensor_type;location;lat;lon;timestamp;temperature;humidity
15257;DHT22;7731;50.720;6.912;2023-06-10T00:01:19;20.30;1.00
15257;DHT22;7731;50.720;6.912;2023-06-10T00:03:50;20.20;1.00
15257;DHT22;7731;50.720;6.912;2023-06-10T00:06:21;20.20;1.00
15257;DHT22;7731;50.720;6.912;2023-06-10T00:08:51;20.30;1.00
15257;DHT22;7731;50.720;6.912;2023-06-10T00:11:29;20.40;1.00
15257;DHT22;7731;50.720;6.912;2023-06-10T00:14:03;20.50;1.00
15257;DHT22;7731;50.720;6.912;2023-06-10T00:16:33;20.60;1.00
15257;DHT22;7731;50.720;6.912;2023-06-10T00:19:06;20.60;1.00
15257;DHT22;7731;50.720;6.912;2023-06-10T00:21:36;20.60;1.00
15257;DHT22;7731;50.720;6.912;2023-06-10T00:24:14;20.50;1.00
15257;DHT22;7731;50.720;6.912;2023-06-10T00:26:47;20.50;1.00
15257;DHT22;7731;50.720;6.912;2023-06-10T00:29:20;20.50;1.00
15257;DHT22;7731;50.720;6.912;2023-06-10T00:31:53;20.60;1.00
15257;DHT22;7731;50.720;6.912;2023-06-10T00:34:25;20.60;1.00
15257;DHT22;7731;50.720;6.912;2023-06-10T00:36:56;20.60;1.00
15257;DHT22;7731;50.720;6.912;2023-06-10T00:39:26;20.60;1.00
15257;DHT22;7731;50.720;6.912;2023-06-10T00:41:56;20.60;1.00
15257;DHT22;7731;50.720;6.912;2023-06-10T00:44:30;20.60;1.00
15257;DHT22;7731;50.720;6.912;2023-06-10T00:47:00;20.60;1.00
15257;DHT22;7731;50.720;6.912;2023-06-10T00:49:34;20.20;1.00
15257;DHT22;7731;50.720;6.912;2023-06-10T00:52:07;19.80;1.00
15257;DHT22;7731;50.720;6.912;2023-06-10T00:54:42;19.50;17.40
15257;DHT22;7731;50.720;6.912;2023-06-10T00:57:13;19.30;31.30
15257;DHT22;7731;50.720;6.912;2023-06-10T00:59:53;19.20;42.90
15257;DHT22;7731;50.720;6.912;2023-06-10T01:02:34;19.00;57.50
15257;DHT22;7731;50.720;6.912;2023-06-10T01:05:06;18.80;80.00
15257;DHT22;7731;50.720;6.912;2023-06-10T01:07:42;18.80;90.00
15257;DHT22;7731;50.720;6.912;2023-06-10T01:10:29;18.70;88.40
15257;DHT22;7731;50.720;6.912;2023-06-10T01:13:05;18.70;89.70
15257;DHT22;7731;50.720;6.912;2023-06-10T01:15:47;18.60;93.90
15257;DHT22;7731;50.720;6.912;2023-06-10T01:18:20;18.60;97.00
15257;DHT22;7731;50.720;6.912;2023-06-10T01:20:50;18.40;96.30
15257;DHT22;7731;50.720;6.912;2023-06-10T01:23:26;18.30;99.90
15257;DHT22;7731;50.720;6.912;2023-06-10T01:26:01;18.30;99.90
15257;DHT22;7731;50.720;6.912;2023-06-10T01:28:42;18.30;99.90
15257;DHT22;7731;50.720;6.912;2023-06-10T01:31:25;18.20;99.90
15257;DHT22;7731;50.720;6.912;2023-06-10T01:34:10;18.20;99.90
15257;DHT22;7731;50.720;6.912;2023-06-10T01:36:46;18.20;99.90
15257;DHT22;7731;50.720;6.912;2023-06-10T01:39:23;18.30;99.90
15257;DHT22;7731;50.720;6.912;2023-06-10T01:41:54;18.30;99.90
15257;DHT22;7731;50.720;6.912;2023-06-10T01:44:26;18.30;99.90
15257;DHT22;7731;50.720;6.912;2023-06-10T01:46:58;18.20;99.90
15257;DHT22;7731;50.720;6.912;2023-06-10T01:49:31;18.10;99.90
15257;DHT22;7731;50.720;6.912;2023-06-10T01:52:02;18.10;99.90
15257;DHT22;7731;50.720;6.912;2023-06-10T01:54:35;18.00;99.90
15257;DHT22;7731;50.720;6.912;2023-06-10T01:57:08;17.90;99.90
15257;DHT22;7731;50.720;6.912;2023-06-10T01:59:38;17.90;99.90
15257;DHT22;7731;50.720;6.912;2023-06-10T02:02:13;17.90;99.90
15257;DHT22;7731;50.720;6.912;2023-06-10T02:04:47;17.80;99.90
15257;DHT22;7731;50.720;6.912;2023-06-10T02:07:19;17.90;99.90
15257;DHT22;7731;50.720;6.912;2023-06-10T02:09:52;17.90;99.90
15257;DHT22;7731;50.720;6.912;2023-06-10T02:12:25;17.80;99.90
15257;DHT22;7731;50.720;6.912;2023-06-10T02:14:56;17.70;99.90
15257;DHT22;7731;50.720;6.912;2023-06-10T02:17:26;17.70;99.90
15257;DHT22;7731;50.720;6.912;2023-06-10T02:19:57;17.50;99.90
15257;DHT22;7731;50.720;6.912;2023-06-10T02:22:34;17.50;99.90
15257;DHT22;7731;50.720;6.912;2023-06-10T02:25:07;17.50;99.90
15257;DHT22;7731;50.720;6.912;2023-06-10T02:27:38;17.60;99.90
15257;DHT22;7731;50.720;6.912;2023-06-10T02:30:12;17.70;99.90
15257;DHT22;7731;50.720;6.912;2023-06-10T02:32:49;17.70;99.90
15257;DHT22;7731;50.720;6.912;2023-06-10T02:35:19;17.60;99.90
15257;DHT22;7731;50.720;6.912;2023-06-10T02:37:51;17.60;99.90
15257;DHT22;7731;50.720;6.912;2023-06-10T02:40:24;17.40;99.90
15257;DHT22;7731;50.720;6.912;2023-06-10T02:42:57;17.20;99.90
15257;DHT22;7731;50.720;6.912;2023-06-10T02:45:28;17.00;99.90
15257;DHT22;7731;50.720;6.912;2023-06-10T02:48:01;16.90;99.90
15257;DHT22;7731;50.720;6.912;2023-06-10T02:50:32;16.80;99.90
15257;DHT22;7731;50.720;6.912;2023-06-10T02:53:02;16.70;99.90
15257;DHT22;7731;50.720;6.912;2023-06-10T02:55:35;16.70;99.90
15257;DHT22;7731;50.720;6.912;2023-06-10T02:58:06;16.80;99.90
15257;DHT22;7731;50.720;6.912;2023-06-10T03:00:39;16.80;99.90
15257;DHT22;7731;50.720;6.912;2023-06-10T03:03:10;16.80;99.90
15257;DHT22;7731;50.720;6.912;2023-06-10T03:05:43;16.80;99.90
15257;DHT22;7731;50.720;6.912;2023-06-10T03:08:15;16.70;99.90
15257;DHT22;7731;50.720;6.912;2023-06-10T03:10:50;16.70;99.90
15257;DHT22;7731;50.720;6.912;2023-06-10T03:13:20;16.70;99.90
15257;DHT22;7731;50.720;6.912;2023-06-10T03:15:50;16.70;99.90
15257;DHT22;7731;50.720;6.912;2023-06-10T03:18:21;16.60;99.90
15257;DHT22;7731;50.720;6.912;2023-06-10T03:20:51;16.50;99.90
15257;DHT22;7731;50.720;6.912;2023-06-10T03:23:22;16.40;99.90
15257;DHT22;7731;50.720;6.912;2023-06-10T03:25:56;16.40;99.90
15257;DHT22;7731;50.720;6.912;2023-06-10T03:28:27;16.40;99.90
15257;DHT22;7731;50.720;6.912;2023-06-10T03:31:03;16.50;99.90
15257;DHT22;7731;50.720;6.912;2023-06-10T03:33:36;16.50;99.90
15257;DHT22;7731;50.720;6.912;2023-06-10T03:36:07;16.50;99.90
15257;DHT22;7731;50.720;6.912;2023-06-10T03:38:37;16.40;99.90
15257;DHT22;7731;50.720;6.912;2023-06-10T03:41:10;16.50;99.90
15257;DHT22;7731;50.720;6.912;2023-06-10T03:43:41;16.50;99.90
15257;DHT22;7731;50.720;6.912;2023-06-10T03:46:11;16.50;99.90
15257;DHT22;7731;50.720;6.912;2023-06-10T03:48:42;16.60;99.90
15257;DHT22;7731;50.720;6.912;2023-06-10T03:51:15;16.60;99.90
15257;DHT22;7731;50.720;6.912;2023-06-10T03:53:45;16.60;99.90
15257;DHT22;7731;50.720;6.912;2023-06-10T03:56:21;16.60;99.90
15257;DHT22;7731;50.720;6.912;2023-06-10T03:58:53;16.50;99.90
15257;DHT22;7731;50.720;6.912;2023-06-10T04:01:26;16.40;99.90
15257;DHT22;7731;50.720;6.912;2023-06-10T04:03:56;16.50;99.90
15257;DHT22;7731;50.720;6.912;2023-06-10T04:06:28;16.60;99.90
15257;DHT22;7731;50.720;6.912;2023-06-10T04:09:01;16.70;99.90
15257;DHT22;7731;50.720;6.912;2023-06-10T04:11:35;16.80;99.90
15257;DHT22;7731;50.720;6.912;2023-06-10T04:14:05;16.80;99.90
15257;DHT22;7731;50.720;6.912;2023-06-10T04:16:35;16.80;99.90
15257;DHT22;7731;50.720;6.912;2023-06-10T04:19:06;16.80;99.90
15257;DHT22;7731;50.720;6.912;2023-06-10T04:21:36;16.90;99.90
15257;DHT22;7731;50.720;6.912;2023-06-10T04:24:07;16.90;99.90
15257;DHT22;7731;50.720;6.912;2023-06-10T04:26:40;16.90;99.90
15257;DHT22;7731;50.720;6.912;2023-06-10T04:29:13;17.00;99.90
15257;DHT22;7731;50.720;6.912;2023-06-10T04:31:47;17.10;99.90
15257;DHT22;7731;50.720;6.912;2023-06-10T04:34:17;17.20;99.90
15257;DHT22;7731;50.720;6.912;2023-06-10T04:36:50;17.50;99.90
15257;DHT22;7731;50.720;6.912;2023-06-10T04:39:21;17.60;99.90
15257;DHT22;7731;50.720;6.912;2023-06-10T04:41:54;17.50;99.90
15257;DHT22;7731;50.720;6.912;2023-06-10T04:44:25;17.50;99.90
15257;DHT22;7731;50.720;6.912;2023-06-10T04:46:56;17.40;99.90
15257;DHT22;7731;50.720;6.912;2023-06-10T04:49:26;17.50;99.90
15257;DHT22;7731;50.720;6.912;2023-06-10T04:51:57;17.50;99.90
15257;DHT22;7731;50.720;6.912;2023-06-10T04:54:30;17.50;99.90
15257;DHT22;7731;50.720;6.912;2023-06-10T04:57:06;17.50;99.90
15257;DHT22;7731;50.720;6.912;2023-06-10T04:59:41;17.60;99.90
15257;DHT22;7731;50.720;6.912;2023-06-10T05:02:15;17.80;99.90
15257;DHT22;7731;50.720;6.912;2023-06-10T05:04:47;18.10;99.90
15257;DHT22;7731;50.720;6.912;2023-06-10T05:07:18;18.20;99.90
15257;DHT22;7731;50.720;6.912;2023-06-10T05:09:50;18.20;99.90
15257;DHT22;7731;50.720;6.912;2023-06-10T05:12:24;18.30;99.90
15257;DHT22;7731;50.720;6.912;2023-06-10T05:14:54;19.10;70.90
15257;DHT22;7731;50.720;6.912;2023-06-10T05:17:25;20.40;1.00
15257;DHT22;7731;50.720;6.912;2023-06-10T05:19:55;22.00;1.00
15257;DHT22;7731;50.720;6.912;2023-06-10T05:22:26;23.70;1.00
15257;DHT22;7731;50.720;6.912;2023-06-10T05:24:56;24.10;99.90
15257;DHT22;7731;50.720;6.912;2023-06-10T05:27:29;25.10;1.00
15257;DHT22;7731;50.720;6.912;2023-06-10T05:29:59;26.00;1.00
15257;DHT22;7731;50.720;6.912;2023-06-10T05:32:30;26.60;99.90
15257;DHT22;7731;50.720;6.912;2023-06-10T05:35:07;26.90;99.90
15257;DHT22;7731;50.720;6.912;2023-06-10T05:37:49;27.30;1.00
15257;DHT22;7731;50.720;6.912;2023-06-10T05:40:22;27.90;77.00
15257;DHT22;7731;50.720;6.912;2023-06-10T05:42:55;28.60;1.00
15257;DHT22;7731;50.720;6.912;2023-06-10T05:45:26;29.00;1.00
15257;DHT22;7731;50.720;6.912;2023-06-10T05:47:56;29.10;99.90
15257;DHT22;7731;50.720;6.912;2023-06-10T05:50:30;29.20;99.90
15257;DHT22;7731;50.720;6.912;2023-06-10T05:53:05;29.40;99.90
15257;DHT22;7731;50.720;6.912;2023-06-10T05:55:42;29.50;99.90
15257;DHT22;7731;50.720;6.912;2023-06-10T05:58:16;30.50;99.90
15257;DHT22;7731;50.720;6.912;2023-06-10T06:00:48;30.30;99.90
15257;DHT22;7731;50.720;6.912;2023-06-10T06:03:21;30.60;99.90
15257;DHT22;7731;50.720;6.912;2023-06-10T06:05:52;31.30;99.90
15257;DHT22;7731;50.720;6.912;2023-06-10T06:08:23;34.40;1.00
15257;DHT22;7731;50.720;6.912;2023-06-10T06:10:56;35.40;1.00
15257;DHT22;7731;50.720;6.912;2023-06-10T06:13:29;34.20;1.00
15257;DHT22;7731;50.720;6.912;2023-06-10T06:15:59;33.70;1.00
15257;DHT22;7731;50.720;6.912;2023-06-10T06:18:30;34.30;1.00
15257;DHT22;7731;50.720;6.912;2023-06-10T06:21:02;34.90;1.00
15257;DHT22;7731;50.720;6.912;2023-06-10T06:23:33;36.40;1.00
15257;DHT22;7731;50.720;6.912;2023-06-10T06:26:05;36.50;1.00
15257;DHT22;7731;50.720;6.912;2023-06-10T06:28:38;36.40;1.00
15257;DHT22;7731;50.720;6.912;2023-06-10T06:31:17;37.60;1.00
15257;DHT22;7731;50.720;6.912;2023-06-10T06:33:48;37.90;1.00
15257;DHT22;7731;50.720;6.912;2023-06-10T06:36:32;37.00;1.00
15257;DHT22;7731;50.720;6.912;2023-06-10T06:39:05;36.90;1.00
15257;DHT22;7731;50.720;6.912;2023-06-10T06:41:35;37.40;1.00
15257;DHT22;7731;50.720;6.912;2023-06-10T06:44:08;37.30;1.00
15257;DHT22;7731;50.720;6.912;2023-06-10T06:46:41;38.60;1.00
15257;DHT22;7731;50.720;6.912;2023-06-10T06:49:12;38.50;1.00
15257;DHT22;7731;50.720;6.912;2023-06-10T06:51:42;37.70;1.00
15257;DHT22;7731;50.720;6.912;2023-06-10T06:54:12;37.00;1.00
15257;DHT22;7731;50.720;6.912;2023-06-10T06:56:45;36.50;1.00
15257;DHT22;7731;50.720;6.912;2023-06-10T06:59:20;38.10;1.00
15257;DHT22;7731;50.720;6.912;2023-06-10T07:01:54;38.60;1.00
15257;DHT22;7731;50.720;6.912;2023-06-10T07:04:25;37.90;1.00
15257;DHT22;7731;50.720;6.912;2023-06-10T07:06:55;37.40;1.00
15257;DHT22;7731;50.720;6.912;2023-06-10T07:09:26;37.60;1.00
15257;DHT22;7731;50.720;6.912;2023-06-10T07:11:56;37.70;1.00
15257;DHT22;7731;50.720;6.912;2023-06-10T07:14:35;37.80;1.00
15257;DHT22;7731;50.720;6.912;2023-06-10T07:17:05;38.10;1.00
15257;DHT22;7731;50.720;6.912;2023-06-10T07:19:36;38.60;1.00
15257;DHT22;7731;50.720;6.912;2023-06-10T07:22:06;38.10;1.00
15257;DHT22;7731;50.720;6.912;2023-06-10T07:24:36;38.80;1.00
15257;DHT22;7731;50.720;6.912;2023-06-10T07:27:07;38.90;1.00
15257;DHT22;7731;50.720;6.912;2023-06-10T07:29:40;38.70;1.00
15257;DHT22;7731;50.720;6.912;2023-06-10T07:32:13;38.20;1.00
15257;DHT22;7731;50.720;6.912;2023-06-10T07:34:50;38.00;1.00
15257;DHT22;7731;50.720;6.912;2023-06-10T07:37:20;37.50;1.00
15257;DHT22;7731;50.720;6.912;2023-06-10T07:39:51;37.60;1.00
15257;DHT22;7731;50.720;6.912;2023-06-10T07:42:27;38.20;1.00
15257;DHT22;7731;50.720;6.912;2023-06-10T07:45:03;38.90;1.00
15257;DHT22;7731;50.720;6.912;2023-06-10T07:47:38;40.00;1.00
15257;DHT22;7731;50.720;6.912;2023-06-10T07:50:11;39.40;1.00
15257;DHT22;7731;50.720;6.912;2023-06-10T07:52:41;38.00;1.00
15257;DHT22;7731;50.720;6.912;2023-06-10T07:55:11;38.50;1.00
15257;DHT22;7731;50.720;6.912;2023-06-10T07:57:50;38.60;1.00
15257;DHT22;7731;50.720;6.912;2023-06-10T08:00:23;38.80;1.00
15257;DHT22;7731;50.720;6.912;2023-06-10T08:02:54;38.90;1.00
15257;DHT22;7731;50.720;6.912;2023-06-10T08:05:24;39.20;1.00
15257;DHT22;7731;50.720;6.912;2023-06-10T08:07:56;38.40;1.00
15257;DHT22;7731;50.720;6.912;2023-06-10T08:10:30;37.70;1.00
15257;DHT22;7731;50.720;6.912;2023-06-10T08:13:00;37.90;1.00
15257;DHT22;7731;50.720;6.912;2023-06-10T08:15:33;38.90;1.00
15257;DHT22;7731;50.720;6.912;2023-06-10T08:18:03;40.70;1.00
15257;DHT22;7731;50.720;6.912;2023-06-10T08:20:34;40.60;1.00
15257;DHT22;7731;50.720;6.912;2023-06-10T08:23:07;39.60;1.00
15257;DHT22;7731;50.720;6.912;2023-06-10T08:25:37;40.70;1.00
15257;DHT22;7731;50.720;6.912;2023-06-10T08:28:10;39.20;1.00
15257;DHT22;7731;50.720;6.912;2023-06-10T08:30:55;39.20;1.00
15257;DHT22;7731;50.720;6.912;2023-06-10T08:33:26;39.30;1.00
15257;DHT22;7731;50.720;6.912;2023-06-10T08:36:00;39.60;1.00
15257;DHT22;7731;50.720;6.912;2023-06-10T08:38:33;39.60;1.00
15257;DHT22;7731;50.720;6.912;2023-06-10T08:41:07;40.60;1.00
15257;DHT22;7731;50.720;6.912;2023-06-10T08:43:47;40.30;1.00
15257;DHT22;7731;50.720;6.912;2023-06-10T08:46:28;40.50;1.00
15257;DHT22;7731;50.720;6.912;2023-06-10T08:49:05;40.70;1.00
15257;DHT22;7731;50.720;6.912;2023-06-10T08:51:41;41.90;1.00
15257;DHT22;7731;50.720;6.912;2023-06-10T08:54:19;41.50;1.00
15257;DHT22;7731;50.720;6.912;2023-06-10T08:56:58;42.00;1.00
15257;DHT22;7731;50.720;6.912;2023-06-10T08:59:29;41.90;1.00
15257;DHT22;7731;50.720;6.912;2023-06-10T09:02:03;41.40;1.00
15257;DHT22;7731;50.720;6.912;2023-06-10T09:04:37;40.90;1.00
15257;DHT22;7731;50.720;6.912;2023-06-10T09:07:08;41.60;1.00
15257;DHT22;7731;50.720;6.912;2023-06-10T09:09:42;42.00;1.00
15257;DHT22;7731;50.720;6.912;2023-06-10T09:12:22;41.20;1.00
15257;DHT22;7731;50.720;6.912;2023-06-10T09:14:58;40.90;1.00
15257;DHT22;7731;50.720;6.912;2023-06-10T09:17:35;40.70;1.00
15257;DHT22;7731;50.720;6.912;2023-06-10T09:20:08;40.70;1.00
15257;DHT22;7731;50.720;6.912;2023-06-10T09:22:40;41.10;1.00
15257;DHT22;7731;50.720;6.912;2023-06-10T09:25:12;40.70;1.00
15257;DHT22;7731;50.720;6.912;2023-06-10T09:27:46;40.80;1.00
15257;DHT22;7731;50.720;6.912;2023-06-10T09:30:25;40.90;1.00
15257;DHT22;7731;50.720;6.912;2023-06-10T09:33:01;41.60;1.00
15257;DHT22;7731;50.720;6.912;2023-06-10T09:35:32;41.70;1.00
15257;DHT22;7731;50.720;6.912;2023-06-10T09:38:03;42.70;1.00
15257;DHT22;7731;50.720;6.912;2023-06-10T09:40:51;42.50;1.00
15257;DHT22;7731;50.720;6.912;2023-06-10T09:43:22;42.10;1.00
15257;DHT22;7731;50.720;6.912;2023-06-10T09:45:56;41.00;1.00
15257;DHT22;7731;50.720;6.912;2023-06-10T09:48:42;40.90;1.00
15257;DHT22;7731;50.720;6.912;2023-06-10T09:51:14;41.30;1.00
15257;DHT22;7731;50.720;6.912;2023-06-10T09:53:48;41.10;1.00
15257;DHT22;7731;50.720;6.912;2023-06-10T09:56:32;41.10;1.00
15257;DHT22;7731;50.720;6.912;2023-06-10T09:59:09;40.40;1.00
15257;DHT22;7731;50.720;6.912;2023-06-10T10:01:42;41.10;1.00
15257;DHT22;7731;50.720;6.912;2023-06-10T10:04:26;41.90;1.00
15257;DHT22;7731;50.720;6.912;2023-06-10T10:07:05;42.10;1.00
15257;DHT22;7731;50.720;6.912;2023-06-10T10:09:36;41.10;1.00
15257;DHT22;7731;50.720;6.912;2023-06-10T10:12:11;40.10;1.00
15257;DHT22;7731;50.720;6.912;2023-06-10T10:14:46;40.10;1.00
15257;DHT22;7731;50.720;6.912;2023-06-10T10:17:24;40.10;1.00
15257;DHT22;7731;50.720;6.912;2023-06-10T10:20:02;40.90;1.00
15257;DHT22;7731;50.720;6.912;2023-06-10T10:22:38;38.90;1.00
15257;DHT22;7731;50.720;6.912;2023-06-10T10:25:11;38.50;1.00
15257;DHT22;7731;50.720;6.912;2023-06-10T10:27:51;38.90;1.00
15257;DHT22;7731;50.720;6.912;2023-06-10T10:30:24;39.10;1.00
15257;DHT22;7731;50.720;6.912;2023-06-10T10:33:03;40.10;1.00
15257;DHT22;7731;50.720;6.912;2023-06-10T10:35:39;39.40;1.00
15257;DHT22;7731;50.720;6.912;2023-06-10T10:38:11;38.90;1.00
15257;DHT22;7731;50.720;6.912;2023-06-10T10:40:42;38.90;1.00
15257;DHT22;7731;50.720;6.912;2023-06-10T10:43:15;38.20;1.00
15257;DHT22;7731;50.720;6.912;2023-06-10T10:45:58;38.80;1.00
15257;DHT22;7731;50.720;6.912;2023-06-10T10:48:37;37.60;1.00
15257;DHT22;7731;50.720;6.912;2023-06-10T10:51:15;36.70;1.00
15257;DHT22;7731;50.720;6.912;2023-06-10T10:54:09;36.80;1.00
15257;DHT22;7731;50.720;6.912;2023-06-10T10:57:10;37.50;1.00
15257;DHT22;7731;50.720;6.912;2023-06-10T10:59:52;37.00;1.00
15257;DHT22;7731;50.720;6.912;2023-06-10T11:02:40;35.90;1.00
15257;DHT22;7731;50.720;6.912;2023-06-10T11:05:14;35.60;1.00
15257;DHT22;7731;50.720;6.912;2023-06-10T11:07:57;35.20;1.00
15257;DHT22;7731;50.720;6.912;2023-06-10T11:10:29;34.50;1.00
15257;DHT22;7731;50.720;6.912;2023-06-10T11:13:06;34.30;1.00
15257;DHT22;7731;50.720;6.912;2023-06-10T11:15:44;34.60;1.00
15257;DHT22;7731;50.720;6.912;2023-06-10T11:18:21;34.60;1.00
15257;DHT22;7731;50.720;6.912;2023-06-10T11:20:58;34.70;1.00
15257;DHT22;7731;50.720;6.912;2023-06-10T11:23:42;34.40;1.00
15257;DHT22;7731;50.720;6.912;2023-06-10T11:26:15;33.40;1.00
15257;DHT22;7731;50.720;6.912;2023-06-10T11:29:07;32.90;1.00
15257;DHT22;7731;50.720;6.912;2023-06-10T11:31:46;32.90;1.00
15257;DHT22;7731;50.720;6.912;2023-06-10T11:34:23;32.70;1.00
15257;DHT22;7731;50.720;6.912;2023-06-10T11:36:54;32.50;1.00
15257;DHT22;7731;50.720;6.912;2023-06-10T11:39:29;32.40;1.00
15257;DHT22;7731;50.720;6.912;2023-06-10T11:42:00;32.20;1.00
15257;DHT22;7731;50.720;6.912;2023-06-10T11:44:30;32.10;1.00
15257;DHT22;7731;50.720;6.912;2023-06-10T11:47:05;32.10;1.00
15257;DHT22;7731;50.720;6.912;2023-06-10T11:49:38;31.80;1.00
15257;DHT22;7731;50.720;6.912;2023-06-10T11:52:12;31.30;1.00
15257;DHT22;7731;50.720;6.912;2023-06-10T11:54:53;31.20;1.00
15257;DHT22;7731;50.720;6.912;2023-06-10T11:57:24;31.10;1.00
15257;DHT22;7731;50.720;6.912;2023-06-10T12:00:04;30.90;1.00
15257;DHT22;7731;50.720;6.912;2023-06-10T12:02:35;30.90;1.00
15257;DHT22;7731;50.720;6.912;2023-06-10T12:05:15;30.70;1.00
15257;DHT22;7731;50.720;6.912;2023-06-10T12:07:46;30.60;1.00
15257;DHT22;7731;50.720;6.912;2023-06-10T12:10:19;30.60;1.00
15257;DHT22;7731;50.720;6.912;2023-06-10T12:12:53;30.60;1.00
15257;DHT22;7731;50.720;6.912;2023-06-10T12:15:25;30.50;1.00
15257;DHT22;7731;50.720;6.912;2023-06-10T12:17:56;30.50;1.00
15257;DHT22;7731;50.720;6.912;2023-06-10T12:20:27;30.40;1.00
15257;DHT22;7731;50.720;6.912;2023-06-10T12:23:09;30.40;1.00
15257;DHT22;7731;50.720;6.912;2023-06-10T12:25:49;30.90;1.00
15257;DHT22;7731;50.720;6.912;2023-06-10T12:28:24;31.20;1.00
15257;DHT22;7731;50.720;6.912;2023-06-10T12:31:07;31.60;1.00
15257;DHT22;7731;50.720;6.912;2023-06-10T12:33:37;31.80;1.00
15257;DHT22;7731;50.720;6.912;2023-06-10T12:36:16;32.20;1.00
15257;DHT22;7731;50.720;6.912;2023-06-10T12:38:47;32.40;1.00
15257;DHT22;7731;50.720;6.912;2023-06-10T12:41:23;31.70;1.00
15257;DHT22;7731;50.720;6.912;2023-06-10T12:43:54;31.50;1.00
15257;DHT22;7731;50.720;6.912;2023-06-10T12:46:36;31.30;1.00
15257;DHT22;7731;50.720;6.912;2023-06-10T12:49:06;31.50;1.00
15257;DHT22;7731;50.720;6.912;2023-06-10T12:51:37;31.50;1.00
15257;DHT22;7731;50.720;6.912;2023-06-10T12:54:10;31.70;1.00
15257;DHT22;7731;50.720;6.912;2023-06-10T12:56:46;32.00;1.00
15257;DHT22;7731;50.720;6.912;2023-06-10T12:59:16;31.80;1.00
15257;DHT22;7731;50.720;6.912;2023-06-10T13:01:50;31.60;1.00
15257;DHT22;7731;50.720;6.912;2023-06-10T13:04:21;31.70;1.00
15257;DHT22;7731;50.720;6.912;2023-06-10T13:06:55;31.90;1.00
15257;DHT22;7731;50.720;6.912;2023-06-10T13:09:34;31.90;1.00
15257;DHT22;7731;50.720;6.912;2023-06-10T13:12:08;31.70;1.00
15257;DHT22;7731;50.720;6.912;2023-06-10T13:14:42;32.00;1.00
15257;DHT22;7731;50.720;6.912;2023-06-10T13:17:16;32.00;1.00
15257;DHT22;7731;50.720;6.912;2023-06-10T13:19:47;31.80;1.00
15257;DHT22;7731;50.720;6.912;2023-06-10T13:22:20;31.40;1.00
15257;DHT22;7731;50.720;6.912;2023-06-10T13:25:01;31.20;1.00
15257;DHT22;7731;50.720;6.912;2023-06-10T13:27:34;31.60;1.00
15257;DHT22;7731;50.720;6.912;2023-06-10T13:30:09;32.00;1.00
15257;DHT22;7731;50.720;6.912;2023-06-10T13:32:40;32.30;1.00
15257;DHT22;7731;50.720;6.912;2023-06-10T13:35:11;32.00;1.00
15257;DHT22;7731;50.720;6.912;2023-06-10T13:37:41;31.50;1.00
15257;DHT22;7731;50.720;6.912;2023-06-10T13:40:14;31.00;1.00
15257;DHT22;7731;50.720;6.912;2023-06-10T13:42:49;30.60;1.00
15257;DHT22;7731;50.720;6.912;2023-06-10T13:45:26;30.40;1.00
15257;DHT22;7731;50.720;6.912;2023-06-10T13:48:06;30.50;1.00
15257;DHT22;7731;50.720;6.912;2023-06-10T13:50:37;30.90;1.00
15257;DHT22;7731;50.720;6.912;2023-06-10T13:53:07;31.20;1.00
15257;DHT22;7731;50.720;6.912;2023-06-10T13:55:38;31.40;1.00
15257;DHT22;7731;50.720;6.912;2023-06-10T13:58:11;31.20;1.00
15257;DHT22;7731;50.720;6.912;2023-06-10T14:00:43;31.20;1.00
15257;DHT22;7731;50.720;6.912;2023-06-10T14:03:14;31.30;1.00
15257;DHT22;7731;50.720;6.912;2023-06-10T14:05:53;31.30;1.00
15257;DHT22;7731;50.720;6.912;2023-06-10T14:08:23;31.30;1.00
15257;DHT22;7731;50.720;6.912;2023-06-10T14:10:54;31.30;1.00
15257;DHT22;7731;50.720;6.912;2023-06-10T14:13:26;30.90;1.00
15257;DHT22;7731;50.720;6.912;2023-06-10T14:16:00;30.60;1.00
15257;DHT22;7731;50.720;6.912;2023-06-10T14:18:36;30.60;1.00
15257;DHT22;7731;50.720;6.912;2023-06-10T14:21:07;30.80;1.00
15257;DHT22;7731;50.720;6.912;2023-06-10T14:23:40;31.00;1.00
15257;DHT22;7731;50.720;6.912;2023-06-10T14:26:10;31.20;1.00
15257;DHT22;7731;50.720;6.912;2023-06-10T14:28:43;31.20;1.00
15257;DHT22;7731;50.720;6.912;2023-06-10T14:31:17;31.30;1.00
15257;DHT22;7731;50.720;6.912;2023-06-10T14:33:47;31.30;1.00
15257;DHT22;7731;50.720;6.912;2023-06-10T14:36:18;31.50;1.00
15257;DHT22;7731;50.720;6.912;2023-06-10T14:38:49;31.60;1.00
15257;DHT22;7731;50.720;6.912;2023-06-10T14:41:22;31.40;1.00
15257;DHT22;7731;50.720;6.912;2023-06-10T14:44:01;31.40;1.00
15257;DHT22;7731;50.720;6.912;2023-06-10T14:46:34;31.40;1.00
15257;DHT22;7731;50.720;6.912;2023-06-10T14:49:04;31.50;1.00
15257;DHT22;7731;50.720;6.912;2023-06-10T14:51:34;31.50;1.00
15257;DHT22;7731;50.720;6.912;2023-06-10T14:54:05;31.50;1.00
15257;DHT22;7731;50.720;6.912;2023-06-10T14:56:38;31.50;1.00
15257;DHT22;7731;50.720;6.912;2023-06-10T14:59:13;31.40;1.00
15257;DHT22;7731;50.720;6.912;2023-06-10T15:01:46;31.20;1.00
15257;DHT22;7731;50.720;6.912;2023-06-10T15:04:16;31.10;1.00
15257;DHT22;7731;50.720;6.912;2023-06-10T15:06:50;31.30;1.00
15257;DHT22;7731;50.720;6.912;2023-06-10T15:09:20;31.10;1.00
15257;DHT22;7731;50.720;6.912;2023-06-10T15:11:50;31.20;1.00
15257;DHT22;7731;50.720;6.912;2023-06-10T15:14:23;31.30;1.00
15257;DHT22;7731;50.720;6.912;2023-06-10T15:16:56;31.40;1.00
15257;DHT22;7731;50.720;6.912;2023-06-10T15:19:27;31.30;1.00
15257;DHT22;7731;50.720;6.912;2023-06-10T15:21:58;31.20;1.00
15257;DHT22;7731;50.720;6.912;2023-06-10T15:24:28;31.30;1.00
15257;DHT22;7731;50.720;6.912;2023-06-10T15:27:01;31.40;1.00
15257;DHT22;7731;50.720;6.912;2023-06-10T15:29:34;31.40;1.00
15257;DHT22;7731;50.720;6.912;2023-06-10T15:32:05;31.30;1.00
15257;DHT22;7731;50.720;6.912;2023-06-10T15:34:47;31.20;1.00
15257;DHT22;7731;50.720;6.912;2023-06-10T15:37:20;30.90;1.00
15257;DHT22;7731;50.720;6.912;2023-06-10T15:39:50;30.90;1.00
15257;DHT22;7731;50.720;6.912;2023-06-10T15:42:23;30.80;1.00
15257;DHT22;7731;50.720;6.912;2023-06-10T15:44:56;30.80;1.00
15257;DHT22;7731;50.720;6.912;2023-06-10T15:47:26;30.90;1.00
15257;DHT22;7731;50.720;6.912;2023-06-10T15:49:57;31.10;1.00
15257;DHT22;7731;50.720;6.912;2023-06-10T15:52:42;31.10;1.00
15257;DHT22;7731;50.720;6.912;2023-06-10T15:55:15;31.10;1.00
15257;DHT22;7731;50.720;6.912;2023-06-10T15:57:45;30.90;1.00
15257;DHT22;7731;50.720;6.912;2023-06-10T16:00:19;30.90;1.00
15257;DHT22;7731;50.720;6.912;2023-06-10T16:02:49;31.10;1.00
15257;DHT22;7731;50.720;6.912;2023-06-10T16:05:20;31.10;1.00
15257;DHT22;7731;50.720;6.912;2023-06-10T16:07:50;31.20;1.00
15257;DHT22;7731;50.720;6.912;2023-06-10T16:10:21;31.20;1.00
15257;DHT22;7731;50.720;6.912;2023-06-10T16:12:52;31.10;1.00
15257;DHT22;7731;50.720;6.912;2023-06-10T16:15:25;31.00;1.00
15257;DHT22;7731;50.720;6.912;2023-06-10T16:17:55;30.90;1.00
15257;DHT22;7731;50.720;6.912;2023-06-10T16:20:29;30.90;1.00
15257;DHT22;7731;50.720;6.912;2023-06-10T16:23:02;30.80;1.00
15257;DHT22;7731;50.720;6.912;2023-06-10T16:25:32;30.90;1.00
15257;DHT22;7731;50.720;6.912;2023-06-10T16:28:09;30.90;1.00
15257;DHT22;7731;50.720;6.912;2023-06-10T16:30:47;30.80;1.00
15257;DHT22;7731;50.720;6.912;2023-06-10T16:33:19;30.70;1.00
15257;DHT22;7731;50.720;6.912;2023-06-10T16:35:50;30.60;1.00
15257;DHT22;7731;50.720;6.912;2023-06-10T16:38:20;30.50;1.00